Bedlington, United Kingdom
Current Conditions -  °F | °C
As of 4:50 AM on Thursday 23 Oct 2014 (Local Time) from EGNT Reporting Station
Few Clouds Few Clouds  
Wind Chill: 54°   Ceiling: Unl
Heat Index: 54°   Visibility: 6mi
Dew Point: 45°   Wind: 10mph
Humidity: 72%   Direction: 240°WSW
Pressure: 29.88"   Gusts: NA
Location:  55.13°N, 1.59°W
Report Text: EGNT 230350Z 24009KT 190V270 9999 FEW030 12/07 Q1012
Loading
Personal Weather Stations






























Interactive Weather Map
Tropical Storm Tracking
New forecast layout! Learn more

10-Day Weather Forecast

Advertisements
Track Severe Weather on mobile